createdAt,value
2022-12-23T00:01:27.835Z,6.87
2022-12-23T00:03:59.256Z,6.90
2022-12-23T00:06:27.855Z,6.43
2022-12-23T00:08:59.409Z,6.97
2022-12-23T00:11:28.282Z,7.03
2022-12-23T00:14:20.553Z,7.30
2022-12-23T00:16:50.896Z,6.87
2022-12-23T00:19:20.892Z,7.23
2022-12-23T00:21:48.797Z,7.70
2022-12-23T00:24:15.808Z,7.63
2022-12-23T00:26:42.857Z,7.47
2022-12-23T00:34:13.309Z,7.10
2022-12-23T00:36:40.823Z,7.60
2022-12-23T00:39:30.153Z,7.40
2022-12-23T00:42:16.177Z,7.97
2022-12-23T00:44:44.307Z,8.17
2022-12-23T00:47:31.205Z,7.70
2022-12-23T00:49:58.229Z,8.17
2022-12-23T00:52:25.167Z,8.93
2022-12-23T00:54:52.176Z,8.60
2022-12-23T00:57:22.055Z,9.27
2022-12-23T00:59:49.148Z,8.47
2022-12-23T01:02:34.768Z,8.57
2022-12-23T01:05:20.369Z,9.30
2022-12-23T01:07:49.710Z,8.87
2022-12-23T01:10:16.688Z,8.93
2022-12-23T01:12:43.705Z,9.63
2022-12-23T01:15:13.455Z,10.77
2022-12-23T01:17:40.414Z,9.87
2022-12-23T01:20:08.263Z,9.77
2022-12-23T01:22:35.280Z,10.33
2022-12-23T01:25:02.589Z,10.57
2022-12-23T01:27:29.472Z,10.60
2022-12-23T01:29:56.431Z,10.00
2022-12-23T01:32:23.389Z,10.83
2022-12-23T01:34:50.258Z,10.97
2022-12-23T01:37:17.247Z,11.23
2022-12-23T01:39:45.833Z,10.97
2022-12-23T01:42:48.699Z,11.93
2022-12-23T01:45:28.855Z,10.87
2022-12-23T01:47:57.490Z,11.43
2022-12-23T01:50:35.707Z,12.27
2022-12-23T01:53:08.106Z,12.10
2022-12-23T01:55:48.669Z,13.40
2022-12-23T01:58:43.944Z,11.70
2022-12-23T02:04:21.117Z,11.97
2022-12-23T02:07:09.503Z,12.17
2022-12-23T02:09:40.575Z,12.63
2022-12-23T02:12:25.805Z,11.90
2022-12-23T02:15:37.114Z,11.93
2022-12-23T02:18:40.711Z,13.07
2022-12-23T02:21:30.415Z,13.23
2022-12-23T02:24:03.191Z,12.40
2022-12-23T02:27:23.147Z,12.93
2022-12-23T02:30:20.724Z,12.20
2022-12-23T02:33:09.641Z,12.63
2022-12-23T02:36:00.984Z,13.03
2022-12-23T02:39:14.916Z,12.40
2022-12-23T02:42:00.334Z,12.60
2022-12-23T02:44:40.893Z,13.13
2022-12-23T02:47:23.617Z,13.70
2022-12-23T02:50:06.104Z,13.40
2022-12-23T02:52:37.643Z,13.07
2022-12-23T02:55:16.360Z,14.83
2022-12-23T02:57:50.416Z,14.40
2022-12-23T03:00:19.221Z,12.77
2022-12-23T03:02:47.105Z,12.33
2022-12-23T03:05:41.188Z,13.37
2022-12-23T03:08:24.015Z,13.33
2022-12-23T03:11:12.205Z,13.13
2022-12-23T03:14:24.316Z,12.67
2022-12-23T03:17:23.856Z,13.20
2022-12-23T03:20:03.844Z,12.70
2022-12-23T03:23:08.197Z,11.17
2022-12-23T03:26:01.763Z,11.20
2022-12-23T03:28:39.830Z,12.20
2022-12-23T03:31:14.689Z,13.27
2022-12-23T03:33:49.025Z,12.23
2022-12-23T03:36:25.213Z,12.10
2022-12-23T03:38:55.998Z,12.17
2022-12-23T03:41:33.672Z,11.97
2022-12-23T03:44:08.825Z,11.33
2022-12-23T03:46:46.974Z,10.63
2022-12-23T03:49:27.164Z,11.13
2022-12-23T03:52:06.441Z,10.47
2022-12-23T03:54:59.231Z,10.73
2022-12-23T03:57:47.999Z,12.07
2022-12-23T04:00:15.027Z,11.43
2022-12-23T04:03:10.538Z,11.07
2022-12-23T04:05:43.440Z,10.20
2022-12-23T04:08:34.972Z,10.50
2022-12-23T04:11:03.226Z,10.90
2022-12-23T04:13:31.648Z,10.90
2022-12-23T04:16:03.159Z,11.20
2022-12-23T04:18:30.642Z,10.80
2022-12-23T04:20:58.902Z,10.90
2022-12-23T04:23:25.824Z,11.03
2022-12-23T04:25:52.688Z,11.10
2022-12-23T04:28:20.364Z,12.00
2022-12-23T04:30:47.378Z,10.23
2022-12-23T04:33:15.299Z,10.93
2022-12-23T04:35:42.163Z,10.87
2022-12-23T04:38:09.137Z,11.03
2022-12-23T04:40:35.998Z,10.80
2022-12-23T04:43:03.755Z,10.40
2022-12-23T04:45:32.547Z,10.43
2022-12-23T04:47:59.656Z,10.23
2022-12-23T04:50:26.630Z,10.30
2022-12-23T04:52:53.908Z,10.27
2022-12-23T04:55:21.136Z,10.53
2022-12-23T04:57:48.196Z,10.60
2022-12-23T05:00:15.776Z,11.00
2022-12-23T05:02:42.740Z,10.00
2022-12-23T05:05:09.817Z,9.73
2022-12-23T05:07:36.708Z,10.33
2022-12-23T05:10:03.890Z,11.63
2022-12-23T05:12:31.998Z,11.97
2022-12-23T05:14:59.079Z,12.50
2022-12-23T05:17:26.026Z,12.57
2022-12-23T05:19:52.919Z,12.77
2022-12-23T05:22:19.844Z,14.17
2022-12-23T05:24:47.019Z,13.83
2022-12-23T05:27:13.976Z,13.43
2022-12-23T05:29:41.192Z,14.30
2022-12-23T05:32:08.380Z,14.83
2022-12-23T05:34:35.384Z,13.83
2022-12-23T05:37:02.275Z,13.90
2022-12-23T05:39:29.151Z,15.33
2022-12-23T05:41:56.068Z,13.73
2022-12-23T05:44:22.981Z,14.70
2022-12-23T05:46:49.913Z,14.20
2022-12-23T05:49:16.818Z,14.93
2022-12-23T05:51:43.894Z,14.23
2022-12-23T05:54:10.801Z,14.40
2022-12-23T05:56:37.785Z,13.77
2022-12-23T05:59:04.758Z,15.73
2022-12-23T06:01:31.729Z,14.43
2022-12-23T06:03:58.755Z,14.70
2022-12-23T06:06:25.872Z,16.03
2022-12-23T06:08:59.157Z,14.97
2022-12-23T06:11:28.362Z,14.63
2022-12-23T06:13:55.290Z,15.30
2022-12-23T06:16:22.352Z,14.37
2022-12-23T06:18:56.297Z,14.53
2022-12-23T06:21:25.375Z,14.03
2022-12-23T06:23:52.675Z,14.50
2022-12-23T06:26:20.148Z,14.50
2022-12-23T06:28:47.206Z,14.60
2022-12-23T06:31:14.997Z,14.20
2022-12-23T06:33:42.743Z,14.50
2022-12-23T06:36:10.031Z,14.70
2022-12-23T06:38:37.005Z,13.87
2022-12-23T06:41:04.009Z,13.50
2022-12-23T06:43:34.237Z,13.40
2022-12-23T06:46:01.253Z,14.80
2022-12-23T06:48:28.228Z,14.20
2022-12-23T06:50:55.160Z,14.37
2022-12-23T06:53:22.111Z,13.80
2022-12-23T06:55:49.107Z,14.03
2022-12-23T06:58:16.247Z,14.43
2022-12-23T07:00:43.225Z,14.53
2022-12-23T07:03:10.205Z,13.90
2022-12-23T07:05:37.900Z,15.30
2022-12-23T07:08:05.521Z,14.73
2022-12-23T07:10:34.131Z,15.30
2022-12-23T07:13:01.769Z,16.37
2022-12-23T07:15:28.646Z,14.83
2022-12-23T07:17:55.694Z,16.10
2022-12-23T07:20:22.835Z,15.37
2022-12-23T07:22:52.335Z,15.77
2022-12-23T07:25:19.280Z,16.43
2022-12-23T07:27:46.164Z,16.37
2022-12-23T07:30:13.379Z,15.00
2022-12-23T07:32:40.307Z,17.37
2022-12-23T07:35:07.560Z,15.87
2022-12-23T07:37:34.431Z,16.23
2022-12-23T07:40:08.007Z,15.17
2022-12-23T07:42:45.554Z,14.70
2022-12-23T07:45:13.339Z,14.10
2022-12-23T07:47:40.211Z,14.43
2022-12-23T07:50:08.280Z,15.10
2022-12-23T07:52:35.417Z,13.63
2022-12-23T07:55:02.417Z,14.40
2022-12-23T07:57:37.763Z,13.67
2022-12-23T08:00:07.613Z,12.60
2022-12-23T08:02:39.561Z,12.50
2022-12-23T08:05:07.881Z,11.87
2022-12-23T08:07:34.943Z,11.77
2022-12-23T08:10:03.616Z,12.07
2022-12-23T08:12:30.557Z,12.00
2022-12-23T08:14:57.532Z,11.07
2022-12-23T08:17:29.388Z,11.63
2022-12-23T08:19:57.080Z,11.53
2022-12-23T08:22:24.640Z,11.47
2022-12-23T08:24:52.571Z,11.00
2022-12-23T08:27:19.864Z,11.17
2022-12-23T08:29:46.769Z,11.77
2022-12-23T08:32:13.656Z,11.17
2022-12-23T08:34:40.678Z,11.30
2022-12-23T08:37:07.673Z,10.50
2022-12-23T08:39:34.887Z,11.00
2022-12-23T08:42:01.846Z,10.33
2022-12-23T08:44:29.745Z,10.97
2022-12-23T08:46:57.204Z,10.60
2022-12-23T08:49:25.080Z,8.93
2022-12-23T08:51:52.102Z,9.30
2022-12-23T08:54:20.327Z,9.80
2022-12-23T08:56:47.522Z,9.37
2022-12-23T08:59:19.661Z,9.67
2022-12-23T09:01:48.376Z,8.13
2022-12-23T09:04:15.931Z,8.07
2022-12-23T09:06:45.334Z,8.13
2022-12-23T09:09:15.691Z,6.97
2022-12-23T09:11:43.155Z,7.27
2022-12-23T09:14:11.954Z,6.97
2022-12-23T09:16:39.597Z,6.73
2022-12-23T09:19:07.731Z,6.60
2022-12-23T09:21:35.009Z,6.57
2022-12-23T09:24:02.086Z,6.87
2022-12-23T09:26:31.312Z,6.80
2022-12-23T09:28:58.859Z,6.33
2022-12-23T09:31:30.655Z,6.23
2022-12-23T09:34:03.041Z,5.63
2022-12-23T09:36:30.076Z,5.73
2022-12-23T09:38:58.483Z,5.93
2022-12-23T09:42:06.346Z,6.70
2022-12-23T09:44:48.253Z,5.80
2022-12-23T09:47:22.606Z,6.13
2022-12-23T09:50:07.055Z,6.93
2022-12-23T09:53:04.748Z,7.23
2022-12-23T09:55:50.233Z,7.07
2022-12-23T09:58:52.806Z,6.93
2022-12-23T10:01:46.155Z,6.60
2022-12-23T10:04:16.046Z,7.20
2022-12-23T10:06:50.729Z,6.93
2022-12-23T10:09:18.904Z,7.00
2022-12-23T10:11:49.757Z,6.53
2022-12-23T10:14:31.297Z,6.30
2022-12-23T10:17:13.372Z,6.30
2022-12-23T10:19:49.535Z,6.43
2022-12-23T10:22:42.634Z,5.83
2022-12-23T10:25:46.418Z,5.80
2022-12-23T10:28:13.337Z,5.77
2022-12-23T10:31:17.148Z,6.10
2022-12-23T10:33:56.368Z,5.77
2022-12-23T10:36:40.790Z,5.43
2022-12-23T10:39:29.983Z,5.53
2022-12-23T10:42:41.168Z,5.17
2022-12-23T10:45:48.531Z,5.47
2022-12-23T10:48:45.461Z,5.40
2022-12-23T10:51:28.197Z,4.70
2022-12-23T10:54:12.253Z,4.87
2022-12-23T10:56:39.337Z,5.30
2022-12-23T10:59:15.921Z,4.70
2022-12-23T11:01:52.521Z,4.90
2022-12-23T11:04:35.144Z,4.70
2022-12-23T11:07:42.008Z,4.07
2022-12-23T11:10:07.663Z,4.27
2022-12-23T11:12:49.760Z,4.40
2022-12-23T11:15:42.215Z,4.17
2022-12-23T11:18:12.181Z,4.07
2022-12-23T11:20:45.232Z,3.60
2022-12-23T11:23:28.594Z,3.73
2022-12-23T11:26:17.737Z,4.00
2022-12-23T11:28:59.996Z,4.03
2022-12-23T11:31:35.515Z,3.67
2022-12-23T11:34:19.079Z,3.53
2022-12-23T11:37:01.778Z,4.17
2022-12-23T11:39:37.207Z,4.03
2022-12-23T11:42:19.974Z,3.27
2022-12-23T11:44:51.633Z,3.53
2022-12-23T11:47:29.174Z,3.40
2022-12-23T11:50:05.335Z,3.77
2022-12-23T11:52:34.021Z,3.90
2022-12-23T11:55:05.277Z,3.87
2022-12-23T11:57:45.157Z,4.00
2022-12-23T12:00:25.117Z,3.53
2022-12-23T12:02:56.367Z,3.43
2022-12-23T12:05:33.082Z,3.57
2022-12-23T12:08:14.787Z,3.43
2022-12-23T12:10:43.197Z,3.23
2022-12-23T12:13:35.724Z,3.67
2022-12-23T12:16:31.376Z,3.57
2022-12-23T12:19:08.228Z,4.03
2022-12-23T12:21:38.968Z,3.10
2022-12-23T12:24:38.396Z,4.00
2022-12-23T12:27:08.230Z,3.37
2022-12-23T12:29:48.968Z,3.27
2022-12-23T12:32:49.902Z,3.37
2022-12-23T12:35:36.551Z,3.70
2022-12-23T12:38:24.812Z,2.83
2022-12-23T12:41:24.451Z,3.30
2022-12-23T12:44:23.654Z,3.80
2022-12-23T12:47:04.092Z,3.43
2022-12-23T12:50:01.160Z,3.93
2022-12-23T12:52:35.724Z,3.20
2022-12-23T12:55:18.625Z,3.50
2022-12-23T12:57:45.844Z,3.83
2022-12-23T13:00:22.652Z,3.83
2022-12-23T13:03:13.548Z,3.83
2022-12-23T13:06:07.650Z,3.73
2022-12-23T13:09:02.197Z,4.07
2022-12-23T13:11:59.768Z,3.57
2022-12-23T13:15:10.626Z,3.20
2022-12-23T13:18:46.661Z,3.50
2022-12-23T13:21:47.660Z,2.80
2022-12-23T13:24:32.660Z,2.63
2022-12-23T13:27:21.661Z,3.23
2022-12-23T13:30:18.801Z,3.20
2022-12-23T13:33:13.337Z,2.90
2022-12-23T13:36:13.287Z,2.80
2022-12-23T13:39:08.294Z,2.70
2022-12-23T13:41:47.451Z,2.60
2022-12-23T13:44:18.251Z,2.63
2022-12-23T13:47:24.080Z,2.77
2022-12-23T13:50:15.786Z,2.57
2022-12-23T13:53:13.446Z,2.63
2022-12-23T13:56:24.420Z,2.40
2022-12-23T13:58:51.979Z,2.50
2022-12-23T14:01:22.676Z,2.40
2022-12-23T14:03:50.922Z,2.77
2022-12-23T14:06:23.677Z,2.57
2022-12-23T14:08:55.637Z,2.37
2022-12-23T14:11:28.825Z,2.70
2022-12-23T14:14:05.940Z,2.60
2022-12-23T14:16:50.800Z,2.50
2022-12-23T14:19:42.627Z,2.23
2022-12-23T14:22:43.117Z,2.17
2022-12-23T14:25:33.256Z,2.00
2022-12-23T14:28:19.605Z,2.10
2022-12-23T14:30:46.657Z,2.07
2022-12-23T14:33:30.211Z,2.60
2022-12-23T14:36:23.593Z,2.40
2022-12-23T14:39:12.187Z,2.57
2022-12-23T14:42:00.114Z,2.53
2022-12-23T14:44:36.475Z,2.77
2022-12-23T14:47:30.063Z,3.13
2022-12-23T14:49:57.055Z,3.10
2022-12-23T14:52:44.418Z,3.37
2022-12-23T14:55:32.362Z,3.50
2022-12-23T14:58:13.368Z,3.60
2022-12-23T15:01:13.075Z,3.63
2022-12-23T15:03:57.565Z,3.77
2022-12-23T15:06:40.639Z,3.90
2022-12-23T15:09:20.813Z,4.00
2022-12-23T15:11:48.334Z,3.93
2022-12-23T15:14:43.911Z,4.23
2022-12-23T15:17:36.716Z,4.67
2022-12-23T15:20:24.322Z,4.67
2022-12-23T15:22:52.664Z,5.03
2022-12-23T15:25:21.564Z,5.33
2022-12-23T15:27:49.819Z,5.23
2022-12-23T15:30:18.281Z,5.73
2022-12-23T15:32:49.431Z,6.17
2022-12-23T15:35:39.963Z,6.33
2022-12-23T15:38:07.261Z,6.60
2022-12-23T15:40:39.155Z,6.30
2022-12-23T15:43:41.044Z,5.87
2022-12-23T15:46:26.896Z,6.20
2022-12-23T15:48:57.015Z,5.83
2022-12-23T15:52:07.206Z,6.73
2022-12-23T15:54:33.565Z,6.63
2022-12-23T15:57:03.185Z,6.73
2022-12-23T15:59:37.190Z,7.23
2022-12-23T16:02:58.583Z,6.80
2022-12-23T16:05:06.243Z,6.17
2022-12-23T16:07:41.373Z,4.93
2022-12-23T16:10:21.006Z,5.30
2022-12-23T16:12:53.003Z,4.57
2022-12-23T16:15:32.401Z,4.70
2022-12-23T16:18:46.910Z,4.43
2022-12-23T16:21:15.687Z,4.87
2022-12-23T16:23:51.871Z,5.10
2022-12-23T16:26:21.409Z,4.87
2022-12-23T16:28:54.039Z,5.73
2022-12-23T16:31:21.790Z,5.33
2022-12-23T16:33:55.040Z,4.83
2022-12-23T16:36:28.497Z,4.63
2022-12-23T16:39:21.652Z,5.33
2022-12-23T16:41:50.163Z,5.47
2022-12-23T16:44:17.252Z,5.83
2022-12-23T16:46:48.704Z,4.90
2022-12-23T16:49:19.676Z,5.70
2022-12-23T16:51:47.428Z,5.47
2022-12-23T16:54:19.876Z,5.30
2022-12-23T16:56:47.294Z,5.47
2022-12-23T16:59:15.383Z,5.50
2022-12-23T17:01:49.105Z,6.90
2022-12-23T17:04:16.046Z,6.87
2022-12-23T17:06:43.034Z,6.33
2022-12-23T17:09:11.469Z,9.13
2022-12-23T17:11:39.742Z,7.37
2022-12-23T17:14:15.695Z,6.60
2022-12-23T17:16:44.544Z,5.83
2022-12-23T17:19:11.721Z,5.53
2022-12-23T17:21:41.870Z,5.10
2022-12-23T17:24:23.716Z,5.17
2022-12-23T17:26:51.720Z,5.77
2022-12-23T17:29:18.965Z,5.90
2022-12-23T17:31:49.630Z,4.63
2022-12-23T17:34:23.539Z,4.93
2022-12-23T17:36:51.306Z,5.97
2022-12-23T17:39:20.193Z,5.07
2022-12-23T17:41:48.404Z,5.33
2022-12-23T17:44:18.005Z,4.70
2022-12-23T17:46:46.452Z,6.20
2022-12-23T17:49:13.562Z,6.13
2022-12-23T17:51:41.456Z,5.40
2022-12-23T17:54:23.328Z,5.33
2022-12-23T17:56:50.963Z,5.03
2022-12-23T17:59:17.929Z,4.60
2022-12-23T18:01:45.879Z,4.33
2022-12-23T18:04:12.829Z,5.17
2022-12-23T18:06:39.847Z,5.33
2022-12-23T18:09:06.763Z,4.70
2022-12-23T18:11:41.793Z,4.47
2022-12-23T18:14:19.751Z,5.03
2022-12-23T18:16:46.873Z,5.47
2022-12-23T18:19:20.103Z,5.67
2022-12-23T18:21:48.196Z,4.83
2022-12-23T18:24:15.453Z,5.47
2022-12-23T18:26:43.003Z,4.97
2022-12-23T18:29:09.912Z,5.80
2022-12-23T18:31:51.413Z,5.20
2022-12-23T18:34:20.458Z,5.37
2022-12-23T18:36:48.257Z,5.13
2022-12-23T18:39:15.569Z,5.73
2022-12-23T18:41:42.434Z,5.27
2022-12-23T18:44:19.969Z,5.40
2022-12-23T18:46:48.223Z,4.83
2022-12-23T18:49:15.209Z,4.97
2022-12-23T18:51:42.301Z,6.27
2022-12-23T18:54:15.310Z,6.53
2022-12-23T18:56:42.865Z,5.60
2022-12-23T18:59:24.229Z,4.70
2022-12-23T19:01:56.677Z,5.43
2022-12-23T19:04:23.772Z,5.30
2022-12-23T19:06:50.743Z,4.77
2022-12-23T19:09:21.233Z,5.83
2022-12-23T19:11:50.262Z,5.30
2022-12-23T19:14:17.332Z,4.60
2022-12-23T19:16:50.835Z,3.87
2022-12-23T19:19:18.558Z,4.40
2022-12-23T19:21:45.534Z,4.50
2022-12-23T19:24:12.476Z,4.67
2022-12-23T19:26:39.318Z,5.47
2022-12-23T19:29:07.037Z,4.47
2022-12-23T19:31:34.237Z,4.93
2022-12-23T19:34:02.083Z,5.20
2022-12-23T19:36:29.251Z,4.23
2022-12-23T19:38:57.609Z,4.20
2022-12-23T19:41:25.016Z,4.93
2022-12-23T19:43:52.044Z,4.47
2022-12-23T19:46:19.040Z,5.73
2022-12-23T19:48:53.866Z,4.50
2022-12-23T19:51:20.831Z,4.83
2022-12-23T19:53:50.974Z,5.10
2022-12-23T19:56:23.364Z,4.90
2022-12-23T19:58:50.697Z,5.60
2022-12-23T20:01:21.301Z,4.70
2022-12-23T20:03:49.840Z,5.30
2022-12-23T20:06:30.495Z,5.43
2022-12-23T20:09:03.268Z,5.73
2022-12-23T20:11:35.723Z,6.03
2022-12-23T20:14:03.826Z,4.80
2022-12-23T20:16:31.280Z,5.53
2022-12-23T20:18:58.221Z,5.47
2022-12-23T20:21:25.187Z,5.70
2022-12-23T20:23:53.137Z,5.37
2022-12-23T20:26:21.056Z,4.40
2022-12-23T20:28:48.008Z,5.30
2022-12-23T20:31:37.506Z,6.00
2022-12-23T20:34:13.970Z,4.83
2022-12-23T20:36:40.944Z,4.77
2022-12-23T20:39:08.424Z,5.17
2022-12-23T20:41:35.581Z,5.63
2022-12-23T20:44:33.375Z,4.90
2022-12-23T20:46:49.514Z,5.77
2022-12-23T20:49:16.459Z,5.63
2022-12-23T20:51:43.342Z,5.67
2022-12-23T20:54:10.221Z,5.43
2022-12-23T20:56:37.367Z,5.90
2022-12-23T20:59:04.263Z,6.17
2022-12-23T21:01:40.274Z,5.37
2022-12-23T21:04:16.814Z,5.77
2022-12-23T21:06:44.752Z,5.43
2022-12-23T21:09:14.523Z,5.20
2022-12-23T21:11:44.950Z,5.00
2022-12-23T21:14:13.026Z,4.57
2022-12-23T21:16:40.396Z,4.27
2022-12-23T21:19:13.777Z,4.67
2022-12-23T21:21:40.739Z,4.30
2022-12-23T21:24:07.841Z,4.60
2022-12-23T21:26:35.763Z,4.03
2022-12-23T21:29:06.792Z,5.17
2022-12-23T21:31:37.621Z,4.50
2022-12-23T21:34:05.558Z,5.07
2022-12-23T21:36:36.995Z,5.47
2022-12-23T21:39:06.099Z,4.87
2022-12-23T21:41:38.394Z,5.40
2022-12-23T21:44:05.976Z,5.80
2022-12-23T21:46:33.017Z,5.30
2022-12-23T21:49:00.390Z,5.10
2022-12-23T21:51:39.072Z,4.73
2022-12-23T21:54:08.110Z,4.63
2022-12-23T21:56:35.508Z,5.53
2022-12-23T21:59:07.125Z,4.67
2022-12-23T22:01:35.406Z,5.33
2022-12-23T22:04:02.776Z,5.53
2022-12-23T22:06:37.200Z,4.77
2022-12-23T22:09:06.948Z,4.53
2022-12-23T22:11:36.479Z,5.57
2022-12-23T22:14:06.388Z,5.87
2022-12-23T22:16:35.493Z,6.37
2022-12-23T22:19:04.604Z,4.83
2022-12-23T22:21:33.901Z,4.70
2022-12-23T22:24:02.647Z,4.40
2022-12-23T22:26:32.511Z,5.40
2022-12-23T22:29:03.564Z,4.60
2022-12-23T22:31:44.785Z,5.53
2022-12-23T22:34:22.006Z,6.00
2022-12-23T22:36:49.794Z,5.70
2022-12-23T22:39:21.493Z,5.07
2022-12-23T22:41:51.265Z,4.90
2022-12-23T22:44:19.105Z,4.70
2022-12-23T22:46:46.274Z,4.30
2022-12-23T22:49:15.098Z,4.63
2022-12-23T22:51:43.483Z,5.23
2022-12-23T22:54:10.725Z,4.30
2022-12-23T22:56:37.759Z,4.77
2022-12-23T22:59:05.942Z,5.13
2022-12-23T23:01:35.880Z,4.43
2022-12-23T23:04:04.565Z,4.40
2022-12-23T23:06:38.540Z,4.40
2022-12-23T23:09:09.106Z,4.90
2022-12-23T23:11:36.497Z,5.27
2022-12-23T23:14:04.240Z,5.17
2022-12-23T23:16:31.685Z,4.47
2022-12-23T23:19:00.294Z,4.80
2022-12-23T23:21:27.505Z,5.13
2022-12-23T23:23:54.578Z,5.30
2022-12-23T23:26:21.935Z,5.50
2022-12-23T23:28:48.929Z,4.93
2022-12-23T23:31:41.158Z,5.70
2022-12-23T23:34:03.681Z,4.70
2022-12-23T23:36:30.587Z,5.67
2022-12-23T23:38:57.493Z,5.67
2022-12-23T23:41:24.490Z,4.90
2022-12-23T23:43:52.450Z,4.87
2022-12-23T23:46:19.731Z,5.83
2022-12-23T23:48:47.849Z,5.53
2022-12-23T23:51:15.022Z,5.53
2022-12-23T23:53:41.968Z,5.23
2022-12-23T23:56:09.539Z,4.97
2022-12-23T23:58:37.436Z,4.87
